createdAt,value
2023-05-05T00:01:04.089Z,14.32
2023-05-05T00:03:35.625Z,13.27
2023-05-05T00:06:05.460Z,13.18
2023-05-05T00:08:34.528Z,12.05
2023-05-05T00:11:03.603Z,10.10
2023-05-05T00:13:32.657Z,10.25
2023-05-05T00:16:08.380Z,10.27
2023-05-05T00:20:10.381Z,10.75
2023-05-05T00:22:39.401Z,11.43
2023-05-05T00:25:09.029Z,12.93
2023-05-05T00:27:40.185Z,13.63
2023-05-05T00:30:10.743Z,14.55
2023-05-05T00:32:39.762Z,15.40
2023-05-05T00:35:11.118Z,16.05
2023-05-05T00:37:39.924Z,15.57
2023-05-05T00:40:10.239Z,15.07
2023-05-05T00:42:43.189Z,15.20
2023-05-05T00:45:13.234Z,14.60
2023-05-05T00:47:44.628Z,14.15
2023-05-05T00:50:24.086Z,14.98
2023-05-05T00:52:55.359Z,13.50
2023-05-05T00:55:24.633Z,11.45
2023-05-05T00:57:54.013Z,12.15
2023-05-05T01:00:23.199Z,9.80
2023-05-05T01:02:53.050Z,8.90
2023-05-05T01:05:25.898Z,9.00
2023-05-05T01:08:10.663Z,8.05
2023-05-05T01:10:46.328Z,7.03
2023-05-05T01:13:32.528Z,6.68
2023-05-05T01:16:07.025Z,5.43
2023-05-05T01:18:43.287Z,6.45
2023-05-05T01:21:17.457Z,4.75
2023-05-05T01:24:28.362Z,4.35
2023-05-05T01:27:10.730Z,3.80
2023-05-05T01:29:51.694Z,4.10
2023-05-05T01:32:27.139Z,4.10
2023-05-05T01:35:02.314Z,3.50
2023-05-05T01:37:48.603Z,3.45
2023-05-05T01:40:23.720Z,3.30
2023-05-05T01:42:53.254Z,3.67
2023-05-05T01:45:26.190Z,3.40
2023-05-05T01:47:58.557Z,3.15
2023-05-05T01:52:59.920Z,3.40
2023-05-05T01:55:30.452Z,3.60
2023-05-05T01:58:02.373Z,3.17
2023-05-05T02:00:33.202Z,3.72
2023-05-05T02:03:06.698Z,3.50
2023-05-05T02:05:39.820Z,3.92
2023-05-05T02:08:11.579Z,4.00
2023-05-05T02:10:41.619Z,3.47
2023-05-05T02:13:13.802Z,3.80
2023-05-05T02:15:45.141Z,3.45
2023-05-05T02:18:15.935Z,3.67
2023-05-05T02:20:46.736Z,3.80
2023-05-05T02:23:15.537Z,4.90
2023-05-05T02:25:50.469Z,3.65
2023-05-05T02:28:23.597Z,3.78
2023-05-05T02:30:59.320Z,3.35
2023-05-05T02:33:34.121Z,3.53
2023-05-05T02:36:09.785Z,3.50
2023-05-05T02:38:44.097Z,3.47
2023-05-05T02:41:17.423Z,3.28
2023-05-05T02:43:49.584Z,3.30
2023-05-05T02:46:20.328Z,3.58
2023-05-05T02:48:51.551Z,3.13
2023-05-05T02:51:20.728Z,3.28
2023-05-05T02:53:49.906Z,3.83
2023-05-05T02:56:26.794Z,3.67
2023-05-05T02:59:05.544Z,3.83
2023-05-05T03:01:52.225Z,3.55
2023-05-05T03:04:28.050Z,3.85
2023-05-05T03:07:04.249Z,3.42
2023-05-05T03:09:39.060Z,3.65
2023-05-05T03:12:14.040Z,3.85
2023-05-05T03:14:55.402Z,3.97
2023-05-05T03:17:26.817Z,4.13
2023-05-05T03:19:57.379Z,4.72
2023-05-05T03:22:27.713Z,5.22
2023-05-05T03:24:57.246Z,6.50
2023-05-05T03:27:26.997Z,5.70
2023-05-05T03:29:56.525Z,6.80
2023-05-05T03:32:27.347Z,5.85
2023-05-05T03:34:58.657Z,6.63
2023-05-05T03:37:32.869Z,7.05
2023-05-05T03:40:01.849Z,7.35
2023-05-05T03:42:30.792Z,6.43
2023-05-05T03:45:00.208Z,6.32
2023-05-05T03:47:29.887Z,6.50
2023-05-05T03:50:00.830Z,7.63
2023-05-05T03:52:30.048Z,6.78
2023-05-05T03:55:00.202Z,6.38
2023-05-05T03:57:29.328Z,6.13
2023-05-05T03:59:58.131Z,6.05
2023-05-05T04:02:27.225Z,6.20
2023-05-05T04:04:56.215Z,6.05
2023-05-05T04:07:26.778Z,5.95
2023-05-05T04:09:57.456Z,5.78
2023-05-05T04:12:26.672Z,5.50
2023-05-05T04:14:55.556Z,7.00
2023-05-05T04:17:24.579Z,6.82
2023-05-05T04:19:53.632Z,6.30
2023-05-05T04:22:22.574Z,5.95
2023-05-05T04:24:53.060Z,6.78
2023-05-05T04:27:22.442Z,6.97
2023-05-05T04:29:51.772Z,6.38
2023-05-05T04:32:20.971Z,7.15
2023-05-05T04:34:50.816Z,7.07
2023-05-05T04:37:20.171Z,6.90
2023-05-05T04:39:49.062Z,7.20
2023-05-05T04:42:19.757Z,7.68
2023-05-05T04:44:48.681Z,7.18
2023-05-05T04:47:18.635Z,7.28
2023-05-05T04:49:47.516Z,6.22
2023-05-05T04:52:16.454Z,7.20
2023-05-05T04:54:45.246Z,6.43
2023-05-05T04:57:14.015Z,7.70
2023-05-05T04:59:45.363Z,8.00
2023-05-05T05:02:15.126Z,7.10
2023-05-05T05:04:44.054Z,6.72
2023-05-05T05:07:14.912Z,7.05
2023-05-05T05:09:43.860Z,7.10
2023-05-05T05:12:12.885Z,6.35
2023-05-05T05:14:41.891Z,6.25
2023-05-05T05:17:12.164Z,6.43
2023-05-05T05:19:41.149Z,6.68
2023-05-05T05:22:10.091Z,6.15
2023-05-05T05:24:41.717Z,7.53
2023-05-05T05:27:11.799Z,6.50
2023-05-05T05:29:43.954Z,5.95
2023-05-05T05:32:14.553Z,6.53
2023-05-05T05:34:43.562Z,6.47
2023-05-05T05:37:13.170Z,6.32
2023-05-05T05:39:43.474Z,7.18
2023-05-05T05:42:13.230Z,6.57
2023-05-05T05:44:42.138Z,6.53
2023-05-05T05:47:11.260Z,6.60
2023-05-05T05:49:41.829Z,6.47
2023-05-05T05:52:10.942Z,6.55
2023-05-05T05:54:40.113Z,5.93
2023-05-05T05:57:09.822Z,6.00
2023-05-05T05:59:38.901Z,5.57
2023-05-05T06:02:09.742Z,6.05
2023-05-05T06:04:38.636Z,6.05
2023-05-05T06:07:09.063Z,5.78
2023-05-05T06:09:38.241Z,5.30
2023-05-05T06:12:07.697Z,6.38
2023-05-05T06:14:37.681Z,5.57
2023-05-05T06:17:06.762Z,4.82
2023-05-05T06:19:39.367Z,5.13
2023-05-05T06:22:09.739Z,5.05
2023-05-05T06:24:38.976Z,4.60
2023-05-05T06:27:08.163Z,5.18
2023-05-05T06:29:37.248Z,6.55
2023-05-05T06:32:08.398Z,6.32
2023-05-05T06:34:37.172Z,5.70
2023-05-05T06:37:06.347Z,4.95
2023-05-05T06:39:36.798Z,5.50
2023-05-05T06:42:05.847Z,4.95
2023-05-05T06:44:36.435Z,4.30
2023-05-05T06:47:05.833Z,7.13
2023-05-05T06:49:34.752Z,4.90
2023-05-05T06:52:03.466Z,4.63
2023-05-05T06:54:32.347Z,4.72
2023-05-05T06:57:02.609Z,5.00
2023-05-05T06:59:31.564Z,5.10
2023-05-05T07:02:00.553Z,4.45
2023-05-05T07:04:29.750Z,4.72
2023-05-05T07:06:58.700Z,4.45
2023-05-05T07:09:27.593Z,4.97
2023-05-05T07:11:56.374Z,4.22
2023-05-05T07:14:26.555Z,4.13
2023-05-05T07:16:55.742Z,4.03
2023-05-05T07:19:24.730Z,3.47
2023-05-05T07:21:53.702Z,3.42
2023-05-05T07:24:23.101Z,3.72
2023-05-05T07:26:54.424Z,3.47
2023-05-05T07:29:23.258Z,3.53
2023-05-05T07:31:53.549Z,3.25
2023-05-05T07:34:22.621Z,3.17
2023-05-05T07:36:51.509Z,3.00
2023-05-05T07:39:21.343Z,3.00
2023-05-05T07:41:50.159Z,2.35
2023-05-05T07:44:19.066Z,3.30
2023-05-05T07:46:47.934Z,2.85
2023-05-05T07:49:18.299Z,2.92
2023-05-05T07:51:50.200Z,2.55
2023-05-05T07:54:19.195Z,3.10
2023-05-05T07:56:48.176Z,2.30
2023-05-05T07:59:17.112Z,2.33
2023-05-05T08:01:45.972Z,2.10
2023-05-05T08:04:14.841Z,2.30
2023-05-05T08:06:45.043Z,2.70
2023-05-05T08:09:14.147Z,2.40
2023-05-05T08:11:42.954Z,2.03
2023-05-05T08:14:11.746Z,9.80
2023-05-05T08:16:40.553Z,6.75
2023-05-05T08:19:21.237Z,2.40
2023-05-05T08:21:58.373Z,3.00
2023-05-05T08:24:28.407Z,2.33
2023-05-05T08:26:58.027Z,2.50
2023-05-05T08:29:27.037Z,2.22
2023-05-05T08:31:56.054Z,2.50
2023-05-05T08:34:24.991Z,2.78
2023-05-05T08:36:55.326Z,3.00
2023-05-05T08:39:24.053Z,2.83
2023-05-05T08:41:53.077Z,2.97
2023-05-05T08:44:21.998Z,3.78
2023-05-05T08:46:51.281Z,3.15
2023-05-05T08:49:21.468Z,3.28
2023-05-05T08:51:52.250Z,4.15
2023-05-05T08:54:27.755Z,3.53
2023-05-05T08:56:58.730Z,24.85
2023-05-05T08:59:30.373Z,4.05
2023-05-05T09:02:00.349Z,4.95
2023-05-05T09:04:29.632Z,5.32
2023-05-05T09:06:59.418Z,11.70
2023-05-05T09:09:31.615Z,6.93
2023-05-05T09:14:28.992Z,8.40
2023-05-05T09:16:57.979Z,8.52
2023-05-05T09:19:26.801Z,8.95
2023-05-05T09:21:56.758Z,8.20
2023-05-05T09:24:25.883Z,8.00
2023-05-05T09:26:58.529Z,7.13
2023-05-05T09:29:27.922Z,6.63
2023-05-05T09:32:09.025Z,8.60
2023-05-05T09:34:38.373Z,7.13
2023-05-05T09:37:07.656Z,6.53
2023-05-05T09:39:36.734Z,6.18
2023-05-05T09:42:08.593Z,5.60
2023-05-05T09:44:40.108Z,5.75
2023-05-05T09:47:21.982Z,5.68
2023-05-05T09:49:59.803Z,6.10
2023-05-05T09:52:30.322Z,6.10
2023-05-05T09:54:59.258Z,6.63
2023-05-05T09:57:30.890Z,6.35
2023-05-05T10:00:01.252Z,5.60
2023-05-05T10:02:34.824Z,5.28
2023-05-05T10:05:09.185Z,5.13
2023-05-05T10:07:38.898Z,5.20
2023-05-05T10:10:09.760Z,5.18
2023-05-05T10:12:41.094Z,4.60
2023-05-05T10:15:12.281Z,4.53
2023-05-05T10:18:02.428Z,3.78
2023-05-05T10:20:39.544Z,4.05
2023-05-05T10:23:11.442Z,2.47
2023-05-05T10:25:47.258Z,2.88
2023-05-05T10:28:22.893Z,3.35
2023-05-05T10:30:53.991Z,3.67
2023-05-05T10:33:32.078Z,3.45
2023-05-05T10:36:03.220Z,3.15
2023-05-05T10:38:33.765Z,3.90
2023-05-05T10:41:02.994Z,4.03
2023-05-05T10:43:33.176Z,7.43
2023-05-05T10:46:02.510Z,4.43
2023-05-05T10:48:39.167Z,4.72
2023-05-05T10:51:35.098Z,4.72
2023-05-05T10:54:13.805Z,5.05
2023-05-05T10:56:44.081Z,5.70
2023-05-05T10:59:42.810Z,6.18
2023-05-05T11:02:22.686Z,5.82
2023-05-05T11:05:14.582Z,7.00
2023-05-05T11:07:44.128Z,6.80
2023-05-05T11:10:14.889Z,6.30
2023-05-05T11:13:19.046Z,7.38
2023-05-05T11:15:50.054Z,5.13
2023-05-05T11:18:36.901Z,5.05
2023-05-05T11:21:09.140Z,5.50
2023-05-05T11:23:38.369Z,6.32
2023-05-05T11:26:07.143Z,5.45
2023-05-05T11:28:56.034Z,5.30
2023-05-05T11:31:26.537Z,5.45
2023-05-05T11:33:55.447Z,5.82
2023-05-05T11:36:41.451Z,6.97
2023-05-05T11:39:19.009Z,6.20
2023-05-05T11:42:10.932Z,5.50
2023-05-05T11:44:43.022Z,5.32
2023-05-05T11:47:33.440Z,5.20
2023-05-05T11:50:33.653Z,3.38
2023-05-05T11:53:03.439Z,3.45
2023-05-05T11:55:32.526Z,2.90
2023-05-05T11:58:01.553Z,2.65
2023-05-05T12:00:34.680Z,2.70
2023-05-05T12:03:05.699Z,1.80
2023-05-05T12:05:36.643Z,2.10
2023-05-05T12:08:06.806Z,2.30
2023-05-05T12:10:37.776Z,2.47
2023-05-05T12:13:18.500Z,3.40
2023-05-05T12:15:47.482Z,2.92
2023-05-05T12:18:27.014Z,2.78
2023-05-05T12:20:55.963Z,3.58
2023-05-05T12:23:27.321Z,3.10
2023-05-05T12:25:56.040Z,3.10
2023-05-05T12:28:24.801Z,5.53
2023-05-05T12:31:00.168Z,2.03
2023-05-05T12:33:30.561Z,2.10
2023-05-05T12:35:59.586Z,2.10
2023-05-05T12:38:28.366Z,2.47
2023-05-05T12:40:57.454Z,1.92
2023-05-05T12:43:31.209Z,1.30
2023-05-05T12:46:08.337Z,1.80
2023-05-05T12:48:39.725Z,1.67
2023-05-05T12:51:13.194Z,1.38
2023-05-05T12:53:42.127Z,2.20
2023-05-05T12:56:30.114Z,1.80
2023-05-05T12:58:59.263Z,1.88
2023-05-05T13:01:28.445Z,1.95
2023-05-05T13:04:10.649Z,2.70
2023-05-05T13:06:40.095Z,2.60
2023-05-05T13:09:10.270Z,2.70
2023-05-05T13:11:40.260Z,3.55
2023-05-05T13:14:09.643Z,2.78
2023-05-05T13:16:38.486Z,2.25
2023-05-05T13:19:08.817Z,2.30
2023-05-05T13:21:37.728Z,2.47
2023-05-05T13:26:39.350Z,1.88
2023-05-05T13:29:08.245Z,1.27
2023-05-05T13:31:37.022Z,1.02
2023-05-05T13:34:06.157Z,1.23
2023-05-05T13:36:36.307Z,0.75
2023-05-05T13:39:05.205Z,0.68
2023-05-05T13:41:34.064Z,1.40
2023-05-05T13:44:04.093Z,3.67
2023-05-05T13:46:33.130Z,0.88
2023-05-05T13:49:01.889Z,1.20
2023-05-05T13:51:32.131Z,1.42
2023-05-05T13:54:02.439Z,2.67
2023-05-05T13:56:31.531Z,0.85
2023-05-05T13:59:00.923Z,0.82
2023-05-05T14:01:30.275Z,0.90
2023-05-05T14:04:04.662Z,1.00
2023-05-05T14:06:35.669Z,1.27
2023-05-05T14:09:08.245Z,1.08
2023-05-05T14:11:37.090Z,1.15
2023-05-05T14:14:06.114Z,1.02
2023-05-05T14:16:35.149Z,3.10
2023-05-05T14:19:04.224Z,2.28
2023-05-05T14:21:33.630Z,1.05
2023-05-05T14:24:02.474Z,1.15
2023-05-05T14:26:32.654Z,1.10
2023-05-05T14:29:01.749Z,0.98
2023-05-05T14:31:33.534Z,0.80
2023-05-05T14:34:08.932Z,0.80
2023-05-05T14:36:38.009Z,1.15
2023-05-05T14:39:06.968Z,0.98
2023-05-05T14:41:37.148Z,1.17
2023-05-05T14:44:06.019Z,0.68
2023-05-05T14:46:34.991Z,1.75
2023-05-05T14:49:04.061Z,1.02
2023-05-05T14:51:32.988Z,0.73
2023-05-05T14:54:01.978Z,1.15
2023-05-05T14:56:31.502Z,0.82
2023-05-05T14:59:01.608Z,0.68
2023-05-05T15:01:30.576Z,0.80
2023-05-05T15:03:59.581Z,0.82
2023-05-05T15:06:28.574Z,0.82
2023-05-05T15:08:57.443Z,0.75
2023-05-05T15:11:26.350Z,0.75
2023-05-05T15:13:55.309Z,0.85
2023-05-05T15:16:25.611Z,0.82
2023-05-05T15:18:54.682Z,0.85
2023-05-05T15:21:23.675Z,0.80
2023-05-05T15:23:52.562Z,0.90
2023-05-05T15:26:21.383Z,1.17
2023-05-05T15:28:50.507Z,0.95
2023-05-05T15:31:19.547Z,0.60
2023-05-05T15:33:51.368Z,0.55
2023-05-05T15:36:22.814Z,0.75
2023-05-05T15:38:51.583Z,0.93
2023-05-05T15:41:20.708Z,0.80
2023-05-05T15:43:49.537Z,1.00
2023-05-05T15:46:18.389Z,0.90
2023-05-05T15:48:47.289Z,1.13
2023-05-05T15:51:17.667Z,1.05
2023-05-05T15:53:46.674Z,0.90
2023-05-05T15:56:15.461Z,0.98
2023-05-05T15:58:44.283Z,1.17
2023-05-05T16:01:13.170Z,2.90
2023-05-05T16:03:42.108Z,1.70
2023-05-05T16:06:12.943Z,0.93
2023-05-05T16:08:43.786Z,0.70
2023-05-05T16:11:12.774Z,0.68
2023-05-05T16:13:42.516Z,0.80
2023-05-05T16:16:11.575Z,1.00
2023-05-05T16:18:40.529Z,0.73
2023-05-05T16:21:09.364Z,1.02
2023-05-05T16:23:38.075Z,0.75
2023-05-05T16:26:08.423Z,0.60
2023-05-05T16:28:37.748Z,0.82
2023-05-05T16:31:06.934Z,0.93
2023-05-05T16:33:36.380Z,1.02
2023-05-05T16:36:07.722Z,0.88
2023-05-05T16:38:36.661Z,1.15
2023-05-05T16:41:08.183Z,0.90
2023-05-05T16:43:37.271Z,0.82
2023-05-05T16:46:07.325Z,1.00
2023-05-05T16:48:36.146Z,1.05
2023-05-05T16:51:05.095Z,1.23
2023-05-05T16:53:34.312Z,0.82
2023-05-05T16:56:03.084Z,1.70
2023-05-05T16:58:33.406Z,2.85
2023-05-05T17:01:03.561Z,1.35
2023-05-05T17:03:32.316Z,0.88
2023-05-05T17:06:01.250Z,2.08
2023-05-05T17:08:30.058Z,1.70
2023-05-05T17:10:59.016Z,1.17
2023-05-05T17:13:27.915Z,0.80
2023-05-05T17:15:58.423Z,0.82
2023-05-05T17:18:27.320Z,1.70
2023-05-05T17:20:56.105Z,1.17
2023-05-05T17:23:24.828Z,1.10
2023-05-05T17:25:53.773Z,1.05
2023-05-05T17:28:22.548Z,1.05
2023-05-05T17:30:51.466Z,0.90
2023-05-05T17:33:22.139Z,1.13
2023-05-05T17:35:50.817Z,1.15
2023-05-05T17:38:19.655Z,1.25
2023-05-05T17:40:48.655Z,1.17
2023-05-05T17:43:17.709Z,1.30
2023-05-05T17:45:46.886Z,1.48
2023-05-05T17:48:15.932Z,1.33
2023-05-05T17:50:47.987Z,1.08
2023-05-05T17:53:18.110Z,3.38
2023-05-05T17:55:47.476Z,1.00
2023-05-05T17:58:16.379Z,1.10
2023-05-05T18:00:45.047Z,1.10
2023-05-05T18:03:14.908Z,1.10
2023-05-05T18:05:46.418Z,1.20
2023-05-05T18:08:15.612Z,1.02
2023-05-05T18:10:44.518Z,1.10
2023-05-05T18:13:13.422Z,1.20
2023-05-05T18:15:42.459Z,1.30
2023-05-05T18:18:11.246Z,1.00
2023-05-05T18:20:40.051Z,1.30
2023-05-05T18:23:11.333Z,1.27
2023-05-05T18:25:42.282Z,1.50
2023-05-05T18:28:13.533Z,1.40
2023-05-05T18:30:42.368Z,1.60
2023-05-05T18:33:11.298Z,1.27
2023-05-05T18:35:40.235Z,1.60
2023-05-05T18:38:10.526Z,1.75
2023-05-05T18:40:39.290Z,1.63
2023-05-05T18:43:08.308Z,1.30
2023-05-05T18:45:39.905Z,1.23
2023-05-05T18:48:08.998Z,1.23
2023-05-05T18:50:38.285Z,1.67
2023-05-05T18:53:07.225Z,4.10
2023-05-05T18:55:37.766Z,41.33
2023-05-05T18:58:06.691Z,1.20
2023-05-05T19:00:35.541Z,1.38
2023-05-05T19:03:04.665Z,1.35
2023-05-05T19:05:33.587Z,1.50
2023-05-05T19:08:02.628Z,1.20
2023-05-05T19:10:31.475Z,1.42
2023-05-05T19:13:04.809Z,1.75
2023-05-05T19:15:33.586Z,1.45
2023-05-05T19:18:02.686Z,1.42
2023-05-05T19:20:31.986Z,1.20
2023-05-05T19:23:03.833Z,1.30
2023-05-05T19:25:32.864Z,1.60
2023-05-05T19:28:01.774Z,1.25
2023-05-05T19:30:32.312Z,1.55
2023-05-05T19:33:01.309Z,1.25
2023-05-05T19:35:31.313Z,1.27
2023-05-05T19:38:00.200Z,1.70
2023-05-05T19:40:29.049Z,4.30
2023-05-05T19:42:57.950Z,20.08
2023-05-05T19:45:26.865Z,1.35
2023-05-05T19:47:58.043Z,1.45
2023-05-05T19:50:27.920Z,1.83
2023-05-05T19:52:56.969Z,1.40
2023-05-05T19:55:26.003Z,0.98
2023-05-05T19:57:54.932Z,1.48
2023-05-05T20:00:24.172Z,1.85
2023-05-05T20:02:53.371Z,1.42
2023-05-05T20:05:23.802Z,1.20
2023-05-05T20:07:52.732Z,1.35
2023-05-05T20:10:21.490Z,1.45
2023-05-05T20:12:52.772Z,1.33
2023-05-05T20:15:22.421Z,1.60
2023-05-05T20:17:51.415Z,1.23
2023-05-05T20:20:21.955Z,1.20
2023-05-05T20:22:52.225Z,1.02
2023-05-05T20:25:21.042Z,1.00
2023-05-05T20:27:49.950Z,1.10
2023-05-05T20:30:18.823Z,1.63
2023-05-05T20:32:47.718Z,1.15
2023-05-05T20:35:16.791Z,1.42
2023-05-05T20:37:46.398Z,2.25
2023-05-05T20:40:16.873Z,1.60
2023-05-05T20:42:45.639Z,1.17
2023-05-05T20:45:14.799Z,1.40
2023-05-05T20:47:43.702Z,1.80
2023-05-05T20:50:13.017Z,1.75
2023-05-05T20:52:42.234Z,2.03
2023-05-05T20:55:11.361Z,1.25
2023-05-05T20:57:41.593Z,1.80
2023-05-05T21:00:11.433Z,1.48
2023-05-05T21:02:40.662Z,1.10
2023-05-05T21:05:10.061Z,1.70
2023-05-05T21:07:39.131Z,1.40
2023-05-05T21:10:09.458Z,1.10
2023-05-05T21:12:38.857Z,1.20
2023-05-05T21:15:10.683Z,1.10
2023-05-05T21:17:39.694Z,1.00
2023-05-05T21:20:10.079Z,1.20
2023-05-05T21:22:39.100Z,1.63
2023-05-05T21:25:15.618Z,1.33
2023-05-05T21:27:44.448Z,1.10
2023-05-05T21:30:15.891Z,1.02
2023-05-05T21:32:45.405Z,1.20
2023-05-05T21:35:14.791Z,1.30
2023-05-05T21:37:43.673Z,1.42
2023-05-05T21:40:13.884Z,1.20
2023-05-05T21:42:43.773Z,2.38
2023-05-05T21:45:14.569Z,1.75
2023-05-05T21:47:43.558Z,1.75
2023-05-05T21:50:13.254Z,1.63
2023-05-05T21:52:42.118Z,1.58
2023-05-05T21:55:11.417Z,1.80
2023-05-05T21:57:40.218Z,1.88
2023-05-05T22:00:10.759Z,1.58
2023-05-05T22:02:46.196Z,1.23
2023-05-05T22:05:15.124Z,1.27
2023-05-05T22:07:44.049Z,1.42
2023-05-05T22:10:13.092Z,1.40
2023-05-05T22:12:42.177Z,1.58
2023-05-05T22:15:12.034Z,1.73
2023-05-05T22:17:41.205Z,1.73
2023-05-05T22:20:12.284Z,2.03
2023-05-05T22:22:41.224Z,2.20
2023-05-05T22:25:11.185Z,3.67
2023-05-05T22:27:40.261Z,3.10
2023-05-05T22:30:10.438Z,3.45
2023-05-05T22:32:39.319Z,3.45
2023-05-05T22:35:09.298Z,3.55
2023-05-05T22:37:39.668Z,3.63
2023-05-05T22:40:10.524Z,3.70
2023-05-05T22:42:39.426Z,3.60
2023-05-05T22:45:09.649Z,3.70
2023-05-05T22:47:38.749Z,2.67
2023-05-05T22:50:09.000Z,3.25
2023-05-05T22:52:39.338Z,3.00
2023-05-05T22:55:09.107Z,3.35
2023-05-05T22:57:38.310Z,3.00
2023-05-05T23:00:09.387Z,3.08
2023-05-05T23:02:38.670Z,2.78
2023-05-05T23:05:08.149Z,3.20
2023-05-05T23:07:37.267Z,3.20
2023-05-05T23:10:10.324Z,2.75
2023-05-05T23:12:39.083Z,3.13
2023-05-05T23:15:09.988Z,2.60
2023-05-05T23:17:39.250Z,3.97
2023-05-05T23:20:12.176Z,3.38
2023-05-05T23:22:40.956Z,3.42
2023-05-05T23:25:11.792Z,3.58
2023-05-05T23:27:41.290Z,3.40
2023-05-05T23:30:11.107Z,3.42
2023-05-05T23:32:39.973Z,3.58
2023-05-05T23:35:09.738Z,3.47
2023-05-05T23:37:38.845Z,3.50
2023-05-05T23:40:09.170Z,2.83
2023-05-05T23:42:39.336Z,2.63
2023-05-05T23:45:09.722Z,2.60
2023-05-05T23:47:39.015Z,2.83
2023-05-05T23:50:09.442Z,2.78
2023-05-05T23:52:38.295Z,2.60
2023-05-05T23:55:08.551Z,2.40
2023-05-05T23:57:39.064Z,2.47
